createdAt,value
2023-01-09T00:01:31.427Z,79.40
2023-01-09T00:03:59.152Z,79.50
2023-01-09T00:06:26.694Z,79.50
2023-01-09T00:08:54.449Z,79.50
2023-01-09T00:11:22.360Z,79.60
2023-01-09T00:13:50.241Z,79.60
2023-01-09T00:16:18.293Z,79.60
2023-01-09T00:18:45.873Z,79.60
2023-01-09T00:21:14.587Z,79.60
2023-01-09T00:23:42.181Z,79.70
2023-01-09T00:26:19.433Z,79.60
2023-01-09T00:28:48.350Z,79.80
2023-01-09T00:31:17.286Z,79.90
2023-01-09T00:34:05.441Z,80.50
2023-01-09T00:36:33.188Z,81.10
2023-01-09T00:39:00.798Z,81.40
2023-01-09T00:41:32.320Z,81.80
2023-01-09T00:44:18.452Z,81.80
2023-01-09T00:46:52.030Z,82.00
2023-01-09T00:49:19.899Z,82.00
2023-01-09T00:51:48.268Z,81.70
2023-01-09T00:54:18.795Z,81.70
2023-01-09T00:56:46.573Z,81.60
2023-01-09T00:59:14.182Z,81.50
2023-01-09T01:01:42.094Z,81.40
2023-01-09T01:04:27.973Z,81.30
2023-01-09T01:07:13.533Z,81.30
2023-01-09T01:09:41.332Z,81.10
2023-01-09T01:12:08.919Z,81.00
2023-01-09T01:14:39.950Z,81.00
2023-01-09T01:17:08.077Z,80.90
2023-01-09T01:19:36.475Z,80.80
2023-01-09T01:22:04.643Z,80.60
2023-01-09T01:24:32.214Z,80.50
2023-01-09T01:26:59.711Z,80.30
2023-01-09T01:29:27.642Z,80.20
2023-01-09T01:31:55.231Z,80.00
2023-01-09T01:34:22.837Z,79.80
2023-01-09T01:36:50.377Z,79.60
2023-01-09T01:39:17.986Z,79.50
2023-01-09T01:41:45.616Z,79.30
2023-01-09T01:44:50.362Z,79.20
2023-01-09T01:47:19.774Z,79.20
2023-01-09T01:49:47.996Z,79.20
2023-01-09T01:52:17.762Z,79.20
2023-01-09T01:54:45.835Z,79.10
2023-01-09T01:57:13.593Z,78.90
2023-01-09T01:59:50.978Z,78.90
2023-01-09T02:02:21.354Z,78.80
2023-01-09T02:04:51.231Z,78.80
2023-01-09T02:07:18.881Z,78.80
2023-01-09T02:09:46.979Z,78.90
2023-01-09T02:12:16.760Z,78.90
2023-01-09T02:14:45.846Z,79.20
2023-01-09T02:17:40.929Z,79.00
2023-01-09T02:20:35.779Z,79.10
2023-01-09T02:23:24.873Z,79.20
2023-01-09T02:25:58.511Z,79.30
2023-01-09T02:29:13.442Z,79.30
2023-01-09T02:32:11.935Z,79.40
2023-01-09T02:34:45.070Z,79.50
2023-01-09T02:37:30.226Z,79.50
2023-01-09T02:40:23.656Z,79.60
2023-01-09T02:42:52.266Z,79.60
2023-01-09T02:45:19.937Z,79.70
2023-01-09T02:47:48.214Z,79.70
2023-01-09T02:50:31.482Z,79.70
2023-01-09T02:52:58.994Z,79.70
2023-01-09T02:55:40.454Z,79.60
2023-01-09T02:58:30.908Z,79.70
2023-01-09T03:01:18.716Z,79.70
2023-01-09T03:04:05.514Z,79.70
2023-01-09T03:06:53.576Z,79.80
2023-01-09T03:09:25.061Z,79.80
2023-01-09T03:12:07.992Z,79.80
2023-01-09T03:14:35.628Z,79.90
2023-01-09T03:17:08.369Z,79.70
2023-01-09T03:19:35.869Z,79.90
2023-01-09T03:22:03.843Z,79.80
2023-01-09T03:24:31.387Z,79.90
2023-01-09T03:26:58.900Z,79.90
2023-01-09T03:29:27.823Z,80.00
2023-01-09T03:31:56.552Z,80.00
2023-01-09T03:34:23.996Z,80.00
2023-01-09T03:36:51.548Z,80.00
2023-01-09T03:39:19.149Z,80.10
2023-01-09T03:41:46.737Z,80.10
2023-01-09T03:44:14.286Z,80.20
2023-01-09T03:46:41.780Z,80.10
2023-01-09T03:49:09.215Z,80.20
2023-01-09T03:51:36.750Z,80.20
2023-01-09T03:54:04.342Z,80.30
2023-01-09T03:56:31.797Z,80.40
2023-01-09T03:58:59.306Z,80.30
2023-01-09T04:01:26.907Z,80.30
2023-01-09T04:03:54.490Z,80.40
2023-01-09T04:06:22.037Z,80.50
2023-01-09T04:08:49.543Z,80.40
2023-01-09T04:11:18.323Z,80.40
2023-01-09T04:13:45.855Z,80.40
2023-01-09T04:16:13.373Z,80.50
2023-01-09T04:18:40.960Z,80.40
2023-01-09T04:21:08.737Z,80.40
2023-01-09T04:23:36.243Z,80.40
2023-01-09T04:26:03.925Z,80.50
2023-01-09T04:28:31.576Z,80.50
2023-01-09T04:30:59.181Z,80.60
2023-01-09T04:33:26.620Z,80.60
2023-01-09T04:35:54.141Z,80.70
2023-01-09T04:38:21.843Z,80.70
2023-01-09T04:40:49.662Z,80.70
2023-01-09T04:43:17.108Z,80.70
2023-01-09T04:45:44.682Z,80.80
2023-01-09T04:48:12.208Z,80.80
2023-01-09T04:50:39.766Z,80.80
2023-01-09T04:53:07.285Z,80.90
2023-01-09T04:55:34.803Z,80.90
2023-01-09T04:58:02.358Z,80.90
2023-01-09T05:00:29.844Z,80.90
2023-01-09T05:02:57.506Z,80.90
2023-01-09T05:05:25.083Z,80.90
2023-01-09T05:07:52.557Z,81.50
2023-01-09T05:10:20.166Z,80.90
2023-01-09T05:12:47.733Z,81.00
2023-01-09T05:15:15.256Z,81.00
2023-01-09T05:17:42.699Z,81.00
2023-01-09T05:20:10.651Z,81.00
2023-01-09T05:22:38.153Z,81.00
2023-01-09T05:25:06.077Z,81.10
2023-01-09T05:27:33.606Z,81.10
2023-01-09T05:30:01.124Z,81.30
2023-01-09T05:32:28.727Z,81.30
2023-01-09T05:34:56.161Z,81.40
2023-01-09T05:37:23.639Z,81.40
2023-01-09T05:39:51.193Z,81.40
2023-01-09T05:42:18.679Z,81.40
2023-01-09T05:44:46.144Z,81.50
2023-01-09T05:47:13.760Z,81.50
2023-01-09T05:49:41.564Z,81.40
2023-01-09T05:52:09.028Z,81.50
2023-01-09T05:54:36.508Z,81.50
2023-01-09T05:57:03.994Z,81.60
2023-01-09T05:59:31.405Z,81.60
2023-01-09T06:01:59.057Z,81.60
2023-01-09T06:04:30.180Z,81.80
2023-01-09T06:06:57.863Z,82.00
2023-01-09T06:09:25.466Z,82.00
2023-01-09T06:11:54.985Z,82.00
2023-01-09T06:14:22.456Z,82.10
2023-01-09T06:16:50.330Z,82.30
2023-01-09T06:19:18.022Z,82.30
2023-01-09T06:21:45.640Z,82.40
2023-01-09T06:24:13.195Z,82.40
2023-01-09T06:26:40.776Z,82.40
2023-01-09T06:29:08.619Z,82.50
2023-01-09T06:31:36.190Z,82.60
2023-01-09T06:34:03.732Z,82.80
2023-01-09T06:36:31.285Z,82.90
2023-01-09T06:38:58.733Z,83.10
2023-01-09T06:41:26.400Z,83.20
2023-01-09T06:43:53.932Z,83.30
2023-01-09T06:46:21.523Z,83.40
2023-01-09T06:48:49.043Z,83.50
2023-01-09T06:51:16.505Z,83.50
2023-01-09T06:53:44.032Z,83.50
2023-01-09T06:56:11.523Z,83.80
2023-01-09T06:58:39.005Z,83.60
2023-01-09T07:01:06.697Z,83.70
2023-01-09T07:03:34.545Z,83.50
2023-01-09T07:06:03.027Z,83.50
2023-01-09T07:08:30.957Z,83.50
2023-01-09T07:10:58.751Z,83.40
2023-01-09T07:13:26.218Z,83.50
2023-01-09T07:15:54.055Z,83.40
2023-01-09T07:18:21.481Z,83.30
2023-01-09T07:20:49.568Z,83.20
2023-01-09T07:23:18.938Z,83.10
2023-01-09T07:25:47.237Z,83.10
2023-01-09T07:28:14.763Z,83.00
2023-01-09T07:30:42.428Z,82.90
2023-01-09T07:33:09.929Z,82.90
2023-01-09T07:35:37.511Z,82.90
2023-01-09T07:38:05.123Z,82.90
2023-01-09T07:40:32.606Z,82.80
2023-01-09T07:43:00.121Z,82.70
2023-01-09T07:45:27.608Z,82.70
2023-01-09T07:47:55.239Z,82.60
2023-01-09T07:50:22.739Z,82.50
2023-01-09T07:52:50.243Z,82.40
2023-01-09T07:55:17.789Z,82.40
2023-01-09T07:57:50.278Z,82.40
2023-01-09T08:00:19.131Z,82.30
2023-01-09T08:02:46.711Z,82.30
2023-01-09T08:05:16.033Z,82.30
2023-01-09T08:07:43.621Z,82.30
2023-01-09T08:10:12.391Z,82.20
2023-01-09T08:12:43.555Z,82.20
2023-01-09T08:15:11.581Z,82.10
2023-01-09T08:17:44.079Z,82.10
2023-01-09T08:20:13.303Z,82.10
2023-01-09T08:22:49.776Z,82.00
2023-01-09T08:25:18.167Z,82.00
2023-01-09T08:27:45.598Z,82.00
2023-01-09T08:30:13.726Z,81.90
2023-01-09T08:32:41.713Z,81.80
2023-01-09T08:35:09.679Z,81.80
2023-01-09T08:37:37.171Z,81.80
2023-01-09T08:40:05.779Z,81.70
2023-01-09T08:42:51.629Z,81.70
2023-01-09T08:45:37.504Z,81.70
2023-01-09T08:48:05.299Z,81.70
2023-01-09T08:50:32.897Z,81.70
2023-01-09T08:53:00.365Z,81.70
2023-01-09T08:55:27.856Z,81.70
2023-01-09T08:57:55.739Z,81.70
2023-01-09T09:00:25.005Z,81.80
2023-01-09T09:03:00.036Z,81.80
2023-01-09T09:05:29.147Z,81.80
2023-01-09T09:07:57.449Z,81.80
2023-01-09T09:10:27.072Z,81.80
2023-01-09T09:12:57.487Z,81.70
2023-01-09T09:15:26.798Z,81.70
2023-01-09T09:17:57.023Z,81.70
2023-01-09T09:20:26.707Z,81.70
2023-01-09T09:22:54.186Z,81.70
2023-01-09T09:25:22.101Z,81.70
2023-01-09T09:27:50.186Z,81.70
2023-01-09T09:30:19.558Z,81.70
2023-01-09T09:32:47.297Z,81.70
2023-01-09T09:35:14.865Z,81.70
2023-01-09T09:37:42.374Z,81.70
2023-01-09T09:40:32.832Z,81.70
2023-01-09T09:43:49.524Z,81.60
2023-01-09T09:46:41.532Z,81.60
2023-01-09T09:49:53.503Z,81.60
2023-01-09T09:52:33.349Z,81.60
2023-01-09T09:55:06.227Z,81.70
2023-01-09T09:57:38.403Z,81.70
2023-01-09T10:00:08.411Z,81.70
2023-01-09T10:02:47.912Z,81.70
2023-01-09T10:05:36.252Z,81.70
2023-01-09T10:08:24.029Z,81.70
2023-01-09T10:10:55.867Z,81.70
2023-01-09T10:13:45.187Z,81.60
2023-01-09T10:16:40.644Z,81.60
2023-01-09T10:19:32.204Z,81.60
2023-01-09T10:22:36.430Z,81.50
2023-01-09T10:25:13.315Z,81.50
2023-01-09T10:27:58.214Z,81.60
2023-01-09T10:30:28.955Z,81.60
2023-01-09T10:33:06.034Z,81.60
2023-01-09T10:35:47.708Z,81.50
2023-01-09T10:38:23.233Z,81.50
2023-01-09T10:41:01.888Z,81.50
2023-01-09T10:43:47.678Z,81.50
2023-01-09T10:46:28.172Z,81.50
2023-01-09T10:49:07.450Z,81.40
2023-01-09T10:52:15.443Z,81.30
2023-01-09T10:55:23.451Z,81.40
2023-01-09T10:57:55.168Z,81.30
2023-01-09T11:00:29.532Z,81.20
2023-01-09T11:02:57.360Z,81.30
2023-01-09T11:05:29.184Z,81.20
2023-01-09T11:08:07.219Z,81.10
2023-01-09T11:10:51.481Z,81.00
2023-01-09T11:13:23.839Z,81.10
2023-01-09T11:16:06.206Z,81.10
2023-01-09T11:18:52.639Z,81.10
2023-01-09T11:21:29.228Z,81.00
2023-01-09T11:24:02.181Z,80.90
2023-01-09T11:26:30.991Z,81.00
2023-01-09T11:29:12.145Z,81.00
2023-01-09T11:31:42.153Z,80.80
2023-01-09T11:34:20.994Z,80.80
2023-01-09T11:36:50.103Z,80.70
2023-01-09T11:39:30.324Z,80.70
2023-01-09T11:42:06.822Z,80.60
2023-01-09T11:44:34.448Z,80.60
2023-01-09T11:47:23.947Z,80.60
2023-01-09T11:49:51.493Z,80.50
2023-01-09T11:52:22.504Z,81.00
2023-01-09T11:54:59.223Z,80.50
2023-01-09T11:57:27.562Z,80.40
2023-01-09T12:00:04.415Z,80.30
2023-01-09T12:02:53.632Z,80.30
2023-01-09T12:05:27.324Z,80.10
2023-01-09T12:08:00.452Z,80.10
2023-01-09T12:10:41.582Z,80.10
2023-01-09T12:13:29.338Z,80.00
2023-01-09T12:16:21.405Z,80.00
2023-01-09T12:18:51.966Z,80.10
2023-01-09T12:21:35.779Z,80.10
2023-01-09T12:24:21.037Z,80.00
2023-01-09T12:27:06.529Z,80.20
2023-01-09T12:29:40.307Z,80.10
2023-01-09T12:32:36.170Z,80.20
2023-01-09T12:36:02.358Z,80.20
2023-01-09T12:38:38.541Z,80.20
2023-01-09T12:41:23.264Z,80.70
2023-01-09T12:44:03.581Z,80.10
2023-01-09T12:46:55.836Z,80.00
2023-01-09T12:49:35.251Z,79.90
2023-01-09T12:52:15.196Z,79.80
2023-01-09T12:54:48.760Z,79.80
2023-01-09T12:57:27.955Z,79.80
2023-01-09T13:00:06.188Z,79.70
2023-01-09T13:02:45.665Z,79.80
2023-01-09T13:05:24.203Z,79.80
2023-01-09T13:08:04.802Z,79.80
2023-01-09T13:10:51.111Z,79.90
2023-01-09T13:13:21.493Z,79.90
2023-01-09T13:15:54.245Z,79.80
2023-01-09T13:18:32.965Z,79.80
2023-01-09T13:21:01.508Z,79.80
2023-01-09T13:23:51.620Z,79.70
2023-01-09T13:26:33.350Z,79.70
2023-01-09T13:29:45.965Z,79.80
2023-01-09T13:32:50.940Z,79.80
2023-01-09T13:35:18.460Z,79.90
2023-01-09T13:37:51.552Z,79.90
2023-01-09T13:40:22.127Z,79.90
2023-01-09T13:43:03.222Z,80.00
2023-01-09T13:45:37.689Z,80.00
2023-01-09T13:48:20.239Z,80.00
2023-01-09T13:50:52.498Z,80.00
2023-01-09T13:53:20.359Z,80.00
2023-01-09T13:55:59.922Z,80.00
2023-01-09T13:58:29.416Z,80.00
2023-01-09T14:00:59.945Z,80.00
2023-01-09T14:03:39.495Z,80.00
2023-01-09T14:06:12.985Z,80.00
2023-01-09T14:08:42.258Z,80.10
2023-01-09T14:11:17.457Z,80.10
2023-01-09T14:13:46.622Z,80.10
2023-01-09T14:16:24.126Z,80.10
2023-01-09T14:18:58.326Z,80.10
2023-01-09T14:21:25.939Z,80.10
2023-01-09T14:24:06.858Z,80.50
2023-01-09T14:26:56.720Z,80.20
2023-01-09T14:29:40.110Z,80.20
2023-01-09T14:32:23.362Z,80.30
2023-01-09T14:34:50.714Z,80.40
2023-01-09T14:37:18.635Z,80.40
2023-01-09T14:39:48.851Z,80.50
2023-01-09T14:42:23.004Z,80.40
2023-01-09T14:45:06.509Z,80.30
2023-01-09T14:47:42.059Z,80.20
2023-01-09T14:50:27.595Z,80.20
2023-01-09T14:53:06.971Z,80.10
2023-01-09T14:55:46.814Z,80.20
2023-01-09T14:58:27.732Z,80.20
2023-01-09T15:01:11.465Z,80.30
2023-01-09T15:03:38.772Z,80.30
2023-01-09T15:06:07.306Z,80.40
2023-01-09T15:08:35.023Z,80.40
2023-01-09T15:11:02.874Z,80.40
2023-01-09T15:13:37.493Z,80.40
2023-01-09T15:16:06.992Z,80.50
2023-01-09T15:18:42.881Z,80.50
2023-01-09T15:21:19.468Z,80.60
2023-01-09T15:23:47.053Z,80.60
2023-01-09T15:26:22.533Z,80.60
2023-01-09T15:28:53.953Z,80.60
2023-01-09T15:31:24.693Z,80.60
2023-01-09T15:33:54.092Z,80.70
2023-01-09T15:36:31.365Z,80.70
2023-01-09T15:39:00.138Z,80.70
2023-01-09T15:41:49.186Z,80.60
2023-01-09T15:44:26.559Z,80.50
2023-01-09T15:46:58.763Z,80.50
2023-01-09T15:49:27.010Z,80.40
2023-01-09T15:51:55.180Z,80.40
2023-01-09T15:54:31.958Z,80.30
2023-01-09T15:57:25.941Z,80.40
2023-01-09T15:59:54.755Z,80.30
2023-01-09T16:02:42.564Z,80.30
2023-01-09T16:05:17.276Z,81.00
2023-01-09T16:07:54.092Z,80.40
2023-01-09T16:10:35.267Z,80.40
2023-01-09T16:13:03.331Z,80.40
2023-01-09T16:15:35.000Z,80.40
2023-01-09T16:18:33.248Z,80.40
2023-01-09T16:21:22.373Z,80.40
2023-01-09T16:24:01.841Z,80.20
2023-01-09T16:26:31.260Z,80.20
2023-01-09T16:29:38.505Z,80.10
2023-01-09T16:32:07.270Z,80.20
2023-01-09T16:34:36.062Z,80.20
2023-01-09T16:37:05.581Z,80.30
2023-01-09T16:39:33.075Z,80.40
2023-01-09T16:42:19.538Z,80.50
2023-01-09T16:44:46.980Z,80.60
2023-01-09T16:47:14.963Z,80.70
2023-01-09T16:49:42.475Z,80.70
2023-01-09T16:52:18.702Z,80.70
2023-01-09T16:54:47.630Z,80.70
2023-01-09T16:57:18.999Z,80.70
2023-01-09T16:59:46.978Z,80.80
2023-01-09T17:02:19.720Z,80.80
2023-01-09T17:04:47.305Z,80.90
2023-01-09T17:07:16.588Z,80.90
2023-01-09T17:09:44.498Z,80.90
2023-01-09T17:12:22.738Z,81.00
2023-01-09T17:14:50.793Z,81.10
2023-01-09T17:17:19.058Z,81.20
2023-01-09T17:19:47.068Z,81.30
2023-01-09T17:22:15.211Z,81.20
2023-01-09T17:25:00.849Z,81.40
2023-01-09T17:27:51.510Z,81.30
2023-01-09T17:30:20.536Z,81.30
2023-01-09T17:32:49.084Z,81.30
2023-01-09T17:35:16.837Z,81.30
2023-01-09T17:37:44.831Z,81.40
2023-01-09T17:40:20.793Z,81.50
2023-01-09T17:42:49.508Z,81.50
2023-01-09T17:45:17.139Z,81.50
2023-01-09T17:47:44.615Z,81.50
2023-01-09T17:50:20.278Z,81.40
2023-01-09T17:52:51.228Z,81.40
2023-01-09T17:55:19.703Z,81.30
2023-01-09T17:57:50.179Z,81.30
2023-01-09T18:00:29.767Z,81.30
2023-01-09T18:02:57.672Z,81.30
2023-01-09T18:05:26.106Z,81.40
2023-01-09T18:07:53.569Z,81.40
2023-01-09T18:10:25.592Z,81.50
2023-01-09T18:12:56.133Z,81.60
2023-01-09T18:15:24.862Z,81.60
2023-01-09T18:17:52.981Z,81.60
2023-01-09T18:20:20.662Z,81.70
2023-01-09T18:22:48.394Z,81.60
2023-01-09T18:25:15.935Z,81.60
2023-01-09T18:27:43.475Z,81.60
2023-01-09T18:30:12.131Z,81.50
2023-01-09T18:32:40.014Z,81.50
2023-01-09T18:35:09.176Z,81.40
2023-01-09T18:37:37.570Z,82.00
2023-01-09T18:40:05.569Z,81.40
2023-01-09T18:42:33.182Z,81.40
2023-01-09T18:45:00.924Z,81.40
2023-01-09T18:47:29.855Z,81.40
2023-01-09T18:49:57.466Z,81.40
2023-01-09T18:52:24.979Z,81.30
2023-01-09T18:54:53.312Z,81.30
2023-01-09T18:57:20.770Z,81.30
2023-01-09T18:59:50.628Z,81.30
2023-01-09T19:02:23.412Z,81.30
2023-01-09T19:04:51.301Z,81.30
2023-01-09T19:07:19.095Z,81.30
2023-01-09T19:09:46.890Z,81.40
2023-01-09T19:12:14.468Z,81.40
2023-01-09T19:14:41.960Z,81.40
2023-01-09T19:17:09.478Z,81.40
2023-01-09T19:19:36.980Z,81.40
2023-01-09T19:22:04.735Z,81.40
2023-01-09T19:24:33.209Z,81.50
2023-01-09T19:27:00.832Z,81.50
2023-01-09T19:29:29.121Z,81.50
2023-01-09T19:31:57.205Z,81.60
2023-01-09T19:34:24.931Z,81.60
2023-01-09T19:36:54.099Z,81.60
2023-01-09T19:39:21.771Z,81.70
2023-01-09T19:41:49.425Z,81.80
2023-01-09T19:44:16.975Z,81.70
2023-01-09T19:46:44.475Z,81.80
2023-01-09T19:49:11.963Z,81.80
2023-01-09T19:51:39.535Z,81.90
2023-01-09T19:54:07.166Z,82.00
2023-01-09T19:56:45.454Z,82.10
2023-01-09T19:59:14.548Z,82.20
2023-01-09T20:01:42.268Z,82.30
2023-01-09T20:04:16.131Z,82.30
2023-01-09T20:06:46.134Z,82.30
2023-01-09T20:09:16.584Z,82.30
2023-01-09T20:11:45.392Z,82.30
2023-01-09T20:14:14.169Z,82.30
2023-01-09T20:16:42.518Z,82.40
2023-01-09T20:19:12.336Z,82.30
2023-01-09T20:21:41.986Z,82.30
2023-01-09T20:24:12.412Z,82.30
2023-01-09T20:26:40.805Z,82.30
2023-01-09T20:29:11.328Z,82.40
2023-01-09T20:31:38.958Z,82.40
2023-01-09T20:34:06.575Z,82.40
2023-01-09T20:36:35.134Z,83.00
2023-01-09T20:39:05.197Z,82.40
2023-01-09T20:41:33.082Z,82.40
2023-01-09T20:44:08.611Z,82.50
2023-01-09T20:46:42.095Z,82.50
2023-01-09T20:49:13.065Z,82.60
2023-01-09T20:51:47.008Z,82.50
2023-01-09T20:54:15.403Z,82.50
2023-01-09T20:56:43.357Z,82.40
2023-01-09T20:59:20.503Z,82.40
2023-01-09T21:01:48.437Z,82.30
2023-01-09T21:04:16.095Z,82.30
2023-01-09T21:06:43.744Z,82.20
2023-01-09T21:09:11.303Z,82.10
2023-01-09T21:11:38.857Z,82.00
2023-01-09T21:14:06.338Z,82.10
2023-01-09T21:16:33.989Z,82.00
2023-01-09T21:19:01.508Z,82.10
2023-01-09T21:21:29.743Z,82.10
2023-01-09T21:23:58.838Z,82.10
2023-01-09T21:26:29.158Z,82.10
2023-01-09T21:28:58.924Z,82.10
2023-01-09T21:31:33.830Z,82.20
2023-01-09T21:34:04.834Z,82.70
2023-01-09T21:36:32.823Z,82.20
2023-01-09T21:39:00.764Z,82.30
2023-01-09T21:41:46.821Z,82.20
2023-01-09T21:44:32.614Z,82.30
2023-01-09T21:47:02.078Z,82.30
2023-01-09T21:49:31.495Z,82.30
2023-01-09T21:51:59.125Z,82.20
2023-01-09T21:54:26.838Z,82.20
2023-01-09T21:56:55.309Z,82.20
2023-01-09T21:59:29.892Z,82.30
2023-01-09T22:01:58.352Z,82.30
2023-01-09T22:04:28.781Z,83.00
2023-01-09T22:06:56.983Z,82.50
2023-01-09T22:09:24.474Z,82.60
2023-01-09T22:11:52.043Z,82.70
2023-01-09T22:14:20.294Z,82.80
2023-01-09T22:16:47.920Z,82.80
2023-01-09T22:19:18.293Z,82.90
2023-01-09T22:21:46.105Z,82.80
2023-01-09T22:24:15.912Z,82.90
2023-01-09T22:26:44.036Z,82.90
2023-01-09T22:29:11.477Z,82.90
2023-01-09T22:31:40.326Z,82.80
2023-01-09T22:34:08.132Z,82.60
2023-01-09T22:36:35.690Z,82.50
2023-01-09T22:39:03.356Z,82.30
2023-01-09T22:41:31.378Z,82.20
2023-01-09T22:43:59.498Z,82.10
2023-01-09T22:46:27.516Z,82.00
2023-01-09T22:48:56.351Z,81.90
2023-01-09T22:51:24.422Z,81.90
2023-01-09T22:53:52.046Z,81.90
2023-01-09T22:56:21.880Z,81.90
2023-01-09T22:58:54.566Z,81.90
2023-01-09T23:01:22.444Z,82.00
2023-01-09T23:03:49.974Z,82.00
2023-01-09T23:06:19.964Z,82.30
2023-01-09T23:08:49.685Z,82.50
2023-01-09T23:11:40.303Z,82.70
2023-01-09T23:14:07.813Z,83.00
2023-01-09T23:16:35.358Z,83.10
2023-01-09T23:19:03.268Z,83.30
2023-01-09T23:21:30.728Z,83.30
2023-01-09T23:23:58.191Z,83.30
2023-01-09T23:26:25.853Z,83.90
2023-01-09T23:28:53.431Z,83.30
2023-01-09T23:31:21.088Z,83.30
2023-01-09T23:33:48.565Z,83.30
2023-01-09T23:36:16.078Z,83.30
2023-01-09T23:38:43.537Z,83.20
2023-01-09T23:41:11.122Z,83.80
2023-01-09T23:43:38.554Z,83.30
2023-01-09T23:46:06.094Z,83.30
2023-01-09T23:48:33.600Z,83.30
2023-01-09T23:51:01.197Z,83.50
2023-01-09T23:53:32.997Z,83.50
2023-01-09T23:56:01.459Z,83.60
2023-01-09T23:58:29.091Z,83.70
